Time;durP1;ratioP1;P1;durP2;ratioP2;P2;SDS_P1;SDS_P2;PMS_P1;PMS_P2;Temp;Humidity;BMP_temperature;BMP_pressure;BME280_temperature;BME280_humidity;BME280_pressure;Samples;Min_cycle;Max_cycle;Signal;HPM_P1;HPM_P2
2021/09/23 00:02:16;;;;;;;89.60;46.30;;;;;;;;;;5065887;28;20024;-72
2021/09/23 00:04:43;;;;;;;71.90;42.00;;;;;;;;;;5066751;28;20035;-72
2021/09/23 00:07:10;;;;;;;78.43;45.20;;;;;;;;;;5068821;28;20395;-72
2021/09/23 00:09:36;;;;;;;79.55;45.17;;;;;;;;;;5058411;28;20038;-72
2021/09/23 00:12:02;;;;;;;85.53;46.55;;;;;;;;;;5070195;28;20020;-72
2021/09/23 00:14:28;;;;;;;79.60;44.75;;;;;;;;;;5066788;28;20487;-73
2021/09/23 00:16:54;;;;;;;87.40;46.85;;;;;;;;;;5069751;28;20027;-72
2021/09/23 00:19:20;;;;;;;86.40;45.47;;;;;;;;;;5070717;28;20437;-72
2021/09/23 00:21:46;;;;;;;77.75;44.17;;;;;;;;;;5066619;28;20437;-72
2021/09/23 00:24:12;;;;;;;94.97;52.20;;;;;;;;;;5069120;28;20024;-72
2021/09/23 00:26:38;;;;;;;90.70;49.40;;;;;;;;;;5062866;28;20032;-72
2021/09/23 00:29:04;;;;;;;78.60;48.75;;;;;;;;;;5063202;28;20032;-72
2021/09/23 00:31:31;;;;;;;87.32;47.45;;;;;;;;;;5069067;28;20024;-72
2021/09/23 00:33:57;;;;;;;91.93;50.55;;;;;;;;;;5065470;28;20056;-72
2021/09/23 00:36:24;;;;;;;88.88;50.83;;;;;;;;;;5069662;28;20024;-72
2021/09/23 00:38:50;;;;;;;95.65;53.15;;;;;;;;;;5059008;28;20035;-72
2021/09/23 00:41:16;;;;;;;91.95;51.97;;;;;;;;;;5070609;28;20075;-72
2021/09/23 00:43:42;;;;;;;93.35;51.85;;;;;;;;;;5083672;28;20395;-72
2021/09/23 00:46:08;;;;;;;106.45;57.67;;;;;;;;;;5064946;28;20029;-72
2021/09/23 00:48:34;;;;;;;103.60;54.10;;;;;;;;;;5061657;28;20025;-72
2021/09/23 00:51:00;;;;;;;109.22;55.00;;;;;;;;;;5067307;28;20410;-72
2021/09/23 00:53:26;;;;;;;115.68;62.38;;;;;;;;;;5070292;28;20021;-72
2021/09/23 00:55:54;;;;;;;131.75;67.38;;;;;;;;;;5067569;28;20039;-72
2021/09/23 00:58:20;;;;;;;108.63;62.80;;;;;;;;;;5063482;28;20468;-73
2021/09/23 01:00:46;;;;;;;108.35;62.30;;;;;;;;;;5064070;28;20020;-72
2021/09/23 01:03:13;;;;;;;116.25;62.80;;;;;;;;;;5066214;28;20047;-72
2021/09/23 01:05:40;;;;;;;123.78;64.57;;;;;;;;;;5070463;28;20032;-72
2021/09/23 01:08:06;;;;;;;116.45;66.65;;;;;;;;;;5055804;28;20020;-73
2021/09/23 01:10:32;;;;;;;114.78;64.32;;;;;;;;;;5069044;28;20071;-72
2021/09/23 01:12:58;;;;;;;123.22;62.67;;;;;;;;;;5067978;28;20688;-72
2021/09/23 01:15:24;;;;;;;118.50;64.13;;;;;;;;;;5068443;28;20032;-72
2021/09/23 01:17:51;;;;;;;114.75;66.93;;;;;;;;;;5067541;28;20044;-73
2021/09/23 01:20:17;;;;;;;126.68;75.53;;;;;;;;;;5070183;28;20088;-72
2021/09/23 01:22:44;;;;;;;124.53;70.63;;;;;;;;;;5066300;28;20029;-73
2021/09/23 01:25:11;;;;;;;131.82;76.05;;;;;;;;;;5068790;28;20035;-72
2021/09/23 01:27:37;;;;;;;132.98;72.43;;;;;;;;;;5065403;28;20040;-72
2021/09/23 01:30:04;;;;;;;129.38;72.93;;;;;;;;;;5068604;28;20486;-72
2021/09/23 01:32:30;;;;;;;134.48;76.25;;;;;;;;;;5067366;28;20021;-72
2021/09/23 01:34:56;;;;;;;146.20;83.47;;;;;;;;;;5065944;28;20017;-73
2021/09/23 01:37:22;;;;;;;133.20;76.28;;;;;;;;;;5059901;28;20039;-73
2021/09/23 01:39:48;;;;;;;136.93;76.68;;;;;;;;;;5069586;28;20032;-72
2021/09/23 01:42:14;;;;;;;132.82;77.45;;;;;;;;;;5067585;28;20032;-72
2021/09/23 01:44:40;;;;;;;132.65;74.43;;;;;;;;;;5069487;28;20095;-72
2021/09/23 01:47:06;;;;;;;121.75;71.45;;;;;;;;;;5052582;28;20032;-73
2021/09/23 01:49:32;;;;;;;136.57;74.97;;;;;;;;;;5068604;28;20031;-72
2021/09/23 01:51:58;;;;;;;125.55;70.38;;;;;;;;;;5067701;28;20040;-72
2021/09/23 01:54:24;;;;;;;123.88;69.63;;;;;;;;;;5064393;28;20016;-72
2021/09/23 01:56:53;;;;;;;125.25;72.70;;;;;;;;;;5064640;28;20033;-72
2021/09/23 01:59:20;;;;;;;116.15;67.10;;;;;;;;;;5063983;28;20132;-71
2021/09/23 02:01:46;;;;;;;126.40;69.47;;;;;;;;;;5060521;28;20044;-74
2021/09/23 02:04:12;;;;;;;132.95;69.13;;;;;;;;;;5070979;28;20029;-72
2021/09/23 02:06:38;;;;;;;116.32;64.72;;;;;;;;;;5070353;28;20032;-72
2021/09/23 02:09:04;;;;;;;120.15;62.90;;;;;;;;;;5067237;28;20021;-72
2021/09/23 02:11:30;;;;;;;113.80;63.88;;;;;;;;;;5067183;28;20028;-72
2021/09/23 02:13:56;;;;;;;118.57;64.20;;;;;;;;;;5070518;28;20044;-72
2021/09/23 02:16:23;;;;;;;119.05;63.80;;;;;;;;;;5068632;28;20025;-72
2021/09/23 02:18:49;;;;;;;113.45;62.25;;;;;;;;;;5071310;28;20505;-72
2021/09/23 02:21:15;;;;;;;106.90;59.58;;;;;;;;;;5071777;28;20106;-73
2021/09/23 02:23:41;;;;;;;131.20;68.40;;;;;;;;;;5071611;28;20111;-72
2021/09/23 02:26:07;;;;;;;126.18;63.97;;;;;;;;;;5072668;28;20166;-72
2021/09/23 02:28:38;;;;;;;126.30;64.50;;;;;;;;;;5066270;28;20111;-71
2021/09/23 02:31:05;;;;;;;114.00;60.13;;;;;;;;;;5073401;28;20027;-72
2021/09/23 02:33:31;;;;;;;108.10;58.72;;;;;;;;;;5069462;28;20500;-72
2021/09/23 02:35:57;;;;;;;123.47;63.75;;;;;;;;;;5073047;28;20112;-72
2021/09/23 02:38:23;;;;;;;123.68;67.03;;;;;;;;;;5069383;28;20036;-72
2021/09/23 02:40:49;;;;;;;124.90;70.30;;;;;;;;;;5067834;28;20064;-72
2021/09/23 02:43:15;;;;;;;129.00;72.57;;;;;;;;;;5070260;28;20032;-72
2021/09/23 02:45:41;;;;;;;125.65;73.40;;;;;;;;;;5071737;28;20033;-72
2021/09/23 02:48:08;;;;;;;130.48;70.30;;;;;;;;;;5066691;28;20052;-72
2021/09/23 02:50:34;;;;;;;131.25;72.82;;;;;;;;;;5061037;28;20522;-72
2021/09/23 02:53:00;;;;;;;141.88;74.40;;;;;;;;;;5069437;28;20478;-73
2021/09/23 02:55:26;;;;;;;135.50;76.45;;;;;;;;;;5072245;28;20033;-72
2021/09/23 02:57:52;;;;;;;133.43;73.03;;;;;;;;;;5070011;28;20409;-72
2021/09/23 03:00:19;;;;;;;148.10;74.75;;;;;;;;;;5063420;28;20036;-72
2021/09/23 03:02:45;;;;;;;146.15;74.93;;;;;;;;;;5073117;28;20036;-72
2021/09/23 03:05:11;;;;;;;139.57;73.57;;;;;;;;;;5071864;28;20032;-72
2021/09/23 03:07:37;;;;;;;128.15;69.00;;;;;;;;;;5071111;28;20112;-73
2021/09/23 03:10:04;;;;;;;129.45;66.15;;;;;;;;;;5059191;28;20032;-72
2021/09/23 03:12:30;;;;;;;101.90;59.38;;;;;;;;;;5071267;28;20028;-73
2021/09/23 03:14:56;;;;;;;98.93;51.83;;;;;;;;;;5067178;28;20107;-73
2021/09/23 03:17:22;;;;;;;64.03;38.83;;;;;;;;;;5070245;28;20071;-72
2021/09/23 03:19:48;;;;;;;60.05;36.72;;;;;;;;;;5070347;28;20067;-72
2021/09/23 03:22:17;;;;;;;68.40;34.78;;;;;;;;;;5067896;28;20170;-72
2021/09/23 03:24:43;;;;;;;52.38;30.58;;;;;;;;;;5083343;28;20060;-72
2021/09/23 03:27:10;;;;;;;47.30;30.60;;;;;;;;;;5066420;28;20043;-74
2021/09/23 03:29:36;;;;;;;59.47;41.60;;;;;;;;;;5069132;28;20131;-73
2021/09/23 03:32:02;;;;;;;96.15;49.65;;;;;;;;;;5067479;28;20040;-73
2021/09/23 03:34:28;;;;;;;89.05;52.30;;;;;;;;;;5059463;28;20024;-72
2021/09/23 03:36:54;;;;;;;98.88;54.58;;;;;;;;;;5067096;28;20025;-73
2021/09/23 03:39:20;;;;;;;102.45;54.40;;;;;;;;;;5067363;28;20032;-72
2021/09/23 03:41:47;;;;;;;95.38;54.45;;;;;;;;;;5071957;28;20051;-73
2021/09/23 03:44:13;;;;;;;105.10;55.20;;;;;;;;;;5063067;28;20078;-73
2021/09/23 03:46:39;;;;;;;87.70;49.15;;;;;;;;;;5061413;28;20040;-73
2021/09/23 03:49:05;;;;;;;78.53;48.22;;;;;;;;;;5061834;28;20556;-73
2021/09/23 03:51:31;;;;;;;60.13;35.60;;;;;;;;;;5052891;28;20025;-72
2021/09/23 03:53:57;;;;;;;47.45;31.02;;;;;;;;;;5062954;28;20100;-72
2021/09/23 03:56:24;;;;;;;46.35;27.90;;;;;;;;;;5071206;28;20029;-72
2021/09/23 03:58:50;;;;;;;43.42;27.35;;;;;;;;;;5068344;28;20036;-73
2021/09/23 04:01:16;;;;;;;44.40;25.17;;;;;;;;;;5069296;28;20039;-73
2021/09/23 04:03:42;;;;;;;44.63;25.65;;;;;;;;;;5071976;28;20029;-73
2021/09/23 04:06:09;;;;;;;36.83;24.27;;;;;;;;;;5071757;28;20115;-73
2021/09/23 04:08:36;;;;;;;41.15;23.73;;;;;;;;;;5069125;28;20016;-72
2021/09/23 04:11:02;;;;;;;39.90;23.02;;;;;;;;;;5055786;28;20024;-73
2021/09/23 04:13:28;;;;;;;40.95;23.23;;;;;;;;;;5060518;28;20409;-73
2021/09/23 04:15:54;;;;;;;39.20;23.00;;;;;;;;;;5064459;28;20383;-73
2021/09/23 04:18:20;;;;;;;38.15;22.08;;;;;;;;;;5068466;28;20158;-73
2021/09/23 04:20:46;;;;;;;37.85;20.73;;;;;;;;;;5061767;28;20021;-72
2021/09/23 04:23:13;;;;;;;34.13;19.70;;;;;;;;;;5071758;28;20024;-73
2021/09/23 04:25:39;;;;;;;34.97;19.85;;;;;;;;;;5065947;28;20401;-73
2021/09/23 04:28:05;;;;;;;30.58;17.95;;;;;;;;;;5066525;28;20029;-74
2021/09/23 04:30:31;;;;;;;30.92;19.90;;;;;;;;;;5065522;28;20029;-72
2021/09/23 04:32:58;;;;;;;36.78;19.30;;;;;;;;;;5069625;28;20043;-72
2021/09/23 04:35:24;;;;;;;31.05;17.13;;;;;;;;;;5066328;28;20027;-72
2021/09/23 04:37:50;;;;;;;30.42;17.05;;;;;;;;;;5058020;28;20033;-74
2021/09/23 04:40:16;;;;;;;28.02;15.88;;;;;;;;;;5078748;28;20055;-73
2021/09/23 04:42:42;;;;;;;30.17;15.55;;;;;;;;;;5068808;28;20028;-72
2021/09/23 04:45:09;;;;;;;24.77;14.75;;;;;;;;;;5065338;28;20077;-71
2021/09/23 04:47:35;;;;;;;24.10;14.02;;;;;;;;;;5066579;28;20751;-72
2021/09/23 04:50:01;;;;;;;26.13;14.57;;;;;;;;;;5070008;28;20475;-72
2021/09/23 04:52:27;;;;;;;26.83;14.10;;;;;;;;;;5070839;28;20044;-72
2021/09/23 04:54:53;;;;;;;21.38;11.55;;;;;;;;;;5069540;28;20025;-72
2021/09/23 04:57:19;;;;;;;18.23;11.15;;;;;;;;;;5067322;28;20020;-71
2021/09/23 04:59:45;;;;;;;20.10;10.95;;;;;;;;;;5070865;28;20035;-72
2021/09/23 05:02:11;;;;;;;20.08;9.95;;;;;;;;;;5070019;28;20028;-72
2021/09/23 05:04:37;;;;;;;18.73;10.25;;;;;;;;;;5068919;28;20498;-72
2021/09/23 05:07:03;;;;;;;16.70;10.02;;;;;;;;;;5070832;28;20025;-71
2021/09/23 05:09:31;;;;;;;21.98;9.50;;;;;;;;;;5068419;28;20056;-72
2021/09/23 05:11:57;;;;;;;19.63;9.10;;;;;;;;;;5074075;28;20025;-72
2021/09/23 05:14:23;;;;;;;23.48;8.75;;;;;;;;;;5069256;28;20032;-73
2021/09/23 05:16:49;;;;;;;18.52;8.80;;;;;;;;;;5077806;28;20551;-72
2021/09/23 05:19:15;;;;;;;15.80;8.02;;;;;;;;;;5055599;28;20483;-72
2021/09/23 05:21:42;;;;;;;18.23;7.70;;;;;;;;;;5068337;28;20032;-71
2021/09/23 05:24:09;;;;;;;15.25;7.57;;;;;;;;;;5069563;28;20020;-72
2021/09/23 05:26:35;;;;;;;15.05;7.78;;;;;;;;;;5068424;28;20035;-72
2021/09/23 05:29:01;;;;;;;20.42;7.30;;;;;;;;;;5063426;28;20472;-72
2021/09/23 05:31:27;;;;;;;15.88;6.88;;;;;;;;;;5063494;28;20101;-71
2021/09/23 05:33:55;;;;;;;15.15;8.02;;;;;;;;;;5064689;28;20028;-72
2021/09/23 05:36:21;;;;;;;18.27;6.95;;;;;;;;;;5068201;28;20020;-72
2021/09/23 05:38:47;;;;;;;20.33;8.00;;;;;;;;;;5067583;28;20487;-73
2021/09/23 05:41:13;;;;;;;16.08;7.47;;;;;;;;;;5068921;28;20126;-73
2021/09/23 05:43:39;;;;;;;15.25;7.47;;;;;;;;;;5065066;28;20032;-73
2021/09/23 05:46:06;;;;;;;15.18;7.05;;;;;;;;;;5063177;28;20039;-73
2021/09/23 05:48:32;;;;;;;18.50;7.90;;;;;;;;;;5059676;28;20070;-73
2021/09/23 05:50:58;;;;;;;17.20;8.35;;;;;;;;;;5062405;28;20106;-75
2021/09/23 05:53:24;;;;;;;18.13;7.10;;;;;;;;;;5059945;28;20411;-73
2021/09/23 05:55:50;;;;;;;12.18;6.70;;;;;;;;;;5061636;28;20688;-74
2021/09/23 05:58:16;;;;;;;17.50;7.60;;;;;;;;;;5059951;28;20033;-73
2021/09/23 06:00:42;;;;;;;15.50;7.10;;;;;;;;;;5062928;28;21158;-73
2021/09/23 06:03:08;;;;;;;14.70;7.03;;;;;;;;;;5062174;28;20505;-74
2021/09/23 06:05:34;;;;;;;19.27;6.93;;;;;;;;;;5060485;28;20103;-73
2021/09/23 06:08:01;;;;;;;15.50;6.95;;;;;;;;;;5060202;28;20028;-73
2021/09/23 06:10:27;;;;;;;14.82;7.35;;;;;;;;;;5062828;28;20485;-73
2021/09/23 06:12:53;;;;;;;15.20;7.15;;;;;;;;;;5062521;28;20088;-74
2021/09/23 06:15:19;;;;;;;14.90;6.63;;;;;;;;;;5061235;28;20024;-73
2021/09/23 06:17:46;;;;;;;19.30;6.05;;;;;;;;;;5060048;28;20020;-74
2021/09/23 06:20:12;;;;;;;14.68;7.45;;;;;;;;;;5077746;28;20028;-72
2021/09/23 06:22:38;;;;;;;15.95;6.47;;;;;;;;;;5054435;28;20594;-75
2021/09/23 06:25:04;;;;;;;18.48;6.97;;;;;;;;;;5058875;28;20033;-73
2021/09/23 06:27:30;;;;;;;11.80;6.90;;;;;;;;;;5059021;28;20685;-74
2021/09/23 06:29:56;;;;;;;20.40;7.03;;;;;;;;;;5061124;28;20036;-74
2021/09/23 06:32:23;;;;;;;14.80;6.72;;;;;;;;;;5062532;28;20032;-74
2021/09/23 06:34:49;;;;;;;14.77;6.07;;;;;;;;;;5062274;28;20021;-74
2021/09/23 06:37:15;;;;;;;12.63;6.22;;;;;;;;;;5059046;28;20016;-72
2021/09/23 06:39:41;;;;;;;15.35;5.82;;;;;;;;;;5061888;28;20040;-73
2021/09/23 06:42:07;;;;;;;16.30;6.72;;;;;;;;;;5062800;28;20024;-72
2021/09/23 06:44:34;;;;;;;19.33;6.55;;;;;;;;;;5060244;28;20025;-73
2021/09/23 06:47:00;;;;;;;16.73;5.97;;;;;;;;;;5057272;28;20078;-75
2021/09/23 06:49:26;;;;;;;13.18;6.72;;;;;;;;;;5061562;28;20115;-75
2021/09/23 06:51:52;;;;;;;14.82;6.32;;;;;;;;;;5062610;28;20020;-79
2021/09/23 06:54:18;;;;;;;11.88;6.63;;;;;;;;;;5065515;28;20024;-73
2021/09/23 06:56:44;;;;;;;12.38;6.50;;;;;;;;;;5064030;28;20509;-73
2021/09/23 06:59:11;;;;;;;13.43;6.25;;;;;;;;;;5061724;28;20024;-72
2021/09/23 07:01:37;;;;;;;15.63;5.95;;;;;;;;;;5066825;28;20029;-73
2021/09/23 07:04:03;;;;;;;18.15;7.03;;;;;;;;;;5081805;28;20020;-73
2021/09/23 07:06:30;;;;;;;17.42;7.22;;;;;;;;;;5070064;28;20460;-73
2021/09/23 07:08:56;;;;;;;15.40;6.97;;;;;;;;;;5060581;28;20123;-73
2021/09/23 07:11:22;;;;;;;13.57;6.22;;;;;;;;;;5063825;28;20105;-74
2021/09/23 07:13:48;;;;;;;13.77;7.15;;;;;;;;;;5064786;28;20067;-73
2021/09/23 07:16:14;;;;;;;14.82;7.07;;;;;;;;;;5064816;28;20161;-73
2021/09/23 07:18:40;;;;;;;14.10;7.43;;;;;;;;;;5063453;28;20012;-72
2021/09/23 07:21:07;;;;;;;13.27;6.90;;;;;;;;;;5065308;28;20533;-72
2021/09/23 07:23:34;;;;;;;16.95;8.07;;;;;;;;;;5065317;28;20025;-73
2021/09/23 07:26:00;;;;;;;11.98;7.20;;;;;;;;;;5065386;28;20100;-73
2021/09/23 07:28:27;;;;;;;14.68;7.50;;;;;;;;;;5062213;28;20024;-72
2021/09/23 07:30:53;;;;;;;15.30;7.53;;;;;;;;;;5064819;28;20031;-73
2021/09/23 07:33:19;;;;;;;14.55;7.07;;;;;;;;;;5064833;28;20090;-74
2021/09/23 07:35:45;;;;;;;16.60;7.03;;;;;;;;;;5059583;28;20114;-74
2021/09/23 07:38:12;;;;;;;16.35;6.13;;;;;;;;;;5063354;28;20036;-73
2021/09/23 07:40:38;;;;;;;17.38;6.78;;;;;;;;;;5059633;28;20423;-73
2021/09/23 07:43:04;;;;;;;13.85;5.72;;;;;;;;;;5065740;28;20033;-72
2021/09/23 07:45:30;;;;;;;12.70;5.85;;;;;;;;;;5079708;28;20525;-72
2021/09/23 07:47:56;;;;;;;16.48;6.43;;;;;;;;;;5065014;28;20025;-73
2021/09/23 07:50:23;;;;;;;12.60;6.28;;;;;;;;;;5065290;28;20032;-72
2021/09/23 07:52:49;;;;;;;19.13;7.28;;;;;;;;;;5070335;28;20024;-73
2021/09/23 07:55:15;;;;;;;15.82;5.93;;;;;;;;;;5070995;28;20032;-75
2021/09/23 07:57:41;;;;;;;14.80;6.97;;;;;;;;;;5062200;28;20025;-72
2021/09/23 08:00:08;;;;;;;10.20;4.80;;;;;;;;;;5065082;28;20206;-73
2021/09/23 08:02:34;;;;;;;11.82;5.57;;;;;;;;;;5064580;28;20033;-73
2021/09/23 08:05:00;;;;;;;14.77;5.75;;;;;;;;;;5064034;28;20071;-71
2021/09/23 08:07:26;;;;;;;13.82;4.93;;;;;;;;;;5062535;28;20070;-74
2021/09/23 08:09:52;;;;;;;12.27;5.28;;;;;;;;;;5064602;28;20032;-72
2021/09/23 08:12:18;;;;;;;16.48;5.93;;;;;;;;;;5067346;28;20059;-70
2021/09/23 08:14:44;;;;;;;13.25;6.00;;;;;;;;;;5064561;28;20020;-73
2021/09/23 08:17:10;;;;;;;10.90;4.80;;;;;;;;;;5061584;28;20020;-71
2021/09/23 08:19:36;;;;;;;13.88;5.68;;;;;;;;;;5064781;28;20039;-74
2021/09/23 08:22:04;;;;;;;10.85;5.63;;;;;;;;;;5064156;28;20060;-72
2021/09/23 08:24:30;;;;;;;11.75;5.43;;;;;;;;;;5063489;28;20029;-72
2021/09/23 08:26:56;;;;;;;12.80;5.15;;;;;;;;;;5063574;28;20160;-72
2021/09/23 08:29:22;;;;;;;11.38;4.85;;;;;;;;;;5061722;28;20020;-74
2021/09/23 08:31:48;;;;;;;11.55;4.95;;;;;;;;;;5061807;28;20017;-73
2021/09/23 08:34:16;;;;;;;16.85;5.18;;;;;;;;;;5062960;28;20048;-73
2021/09/23 08:36:42;;;;;;;14.73;5.43;;;;;;;;;;5062391;28;20090;-71
2021/09/23 08:39:08;;;;;;;9.25;4.78;;;;;;;;;;5061324;28;20102;-74
2021/09/23 08:41:34;;;;;;;14.25;5.25;;;;;;;;;;5064199;28;20040;-73
2021/09/23 08:44:01;;;;;;;19.13;6.03;;;;;;;;;;5063420;28;20093;-72
2021/09/23 08:46:31;;;;;;;17.92;5.68;;;;;;;;;;5048888;28;20045;-72
2021/09/23 08:48:58;;;;;;;13.35;5.22;;;;;;;;;;5060378;28;20120;-71
2021/09/23 08:51:24;;;;;;;20.10;6.07;;;;;;;;;;5062476;28;20108;-71
2021/09/23 08:53:50;;;;;;;13.90;5.05;;;;;;;;;;5064236;28;20483;-72
2021/09/23 08:56:19;;;;;;;14.55;5.55;;;;;;;;;;5063691;28;20023;-72
2021/09/23 08:58:45;;;;;;;14.32;6.50;;;;;;;;;;5058695;28;20103;-72
2021/09/23 09:01:23;;;;;;;15.25;4.90;;;;;;;;;;5069044;28;20029;-75
2021/09/23 09:03:58;;;;;;;14.55;7.00;;;;;;;;;;5067916;28;20029;-72
2021/09/23 09:06:24;;;;;;;14.85;6.85;;;;;;;;;;5061992;28;20394;-73
2021/09/23 09:08:50;;;;;;;19.00;7.90;;;;;;;;;;5061318;28;20556;-72
2021/09/23 09:11:16;;;;;;;14.90;7.72;;;;;;;;;;5061078;28;20437;-74
2021/09/23 09:13:46;;;;;;;12.73;8.02;;;;;;;;;;5062959;28;20478;-72
2021/09/23 09:16:14;;;;;;;16.67;7.95;;;;;;;;;;5062530;28;20525;-71
2021/09/23 09:18:41;;;;;;;14.95;7.22;;;;;;;;;;5060190;28;20542;-72
2021/09/23 09:21:09;;;;;;;14.18;7.65;;;;;;;;;;5061380;28;20028;-71
2021/09/23 09:23:45;;;;;;;14.98;7.07;;;;;;;;;;5062372;28;20028;-69
2021/09/23 09:26:11;;;;;;;13.88;7.15;;;;;;;;;;5060430;28;20493;-72
2021/09/23 09:28:57;;;;;;;12.55;7.53;;;;;;;;;;5055343;28;20020;-74
2021/09/23 09:31:23;;;;;;;11.63;6.03;;;;;;;;;;5062429;28;20035;-72
2021/09/23 09:33:50;;;;;;;13.23;4.78;;;;;;;;;;5062664;28;20036;-71
2021/09/23 09:36:23;;;;;;;12.05;3.85;;;;;;;;;;5062006;28;20020;-71
2021/09/23 09:38:52;;;;;;;15.68;4.80;;;;;;;;;;5060407;28;20047;-71
2021/09/23 09:41:29;;;;;;;11.05;4.93;;;;;;;;;;5061842;28;20502;-70
2021/09/23 09:43:56;;;;;;;16.02;5.00;;;;;;;;;;5062136;28;20498;-71
2021/09/23 09:46:29;;;;;;;15.00;5.13;;;;;;;;;;5064188;28;20359;-71
2021/09/23 09:48:56;;;;;;;9.63;4.57;;;;;;;;;;5058386;28;20109;-72
2021/09/23 09:51:23;;;;;;;10.70;5.13;;;;;;;;;;5062451;28;20502;-72
2021/09/23 09:53:59;;;;;;;10.90;4.60;;;;;;;;;;5061496;28;20024;-71
2021/09/23 09:56:25;;;;;;;13.52;4.57;;;;;;;;;;5062700;28;20021;-71
2021/09/23 09:59:10;;;;;;;19.60;4.80;;;;;;;;;;5060321;28;20763;-73
2021/09/23 10:01:36;;;;;;;13.07;4.03;;;;;;;;;;5063030;28;20071;-72
2021/09/23 10:04:03;;;;;;;16.90;5.10;;;;;;;;;;5062872;28;20021;-72
2021/09/23 10:06:29;;;;;;;13.07;5.30;;;;;;;;;;5063038;28;20032;-72
2021/09/23 10:08:55;;;;;;;11.65;5.75;;;;;;;;;;5059956;28;20059;-71
2021/09/23 10:11:22;;;;;;;15.00;6.03;;;;;;;;;;5063102;28;20031;-73
2021/09/23 10:13:48;;;;;;;12.95;5.50;;;;;;;;;;5061108;28;20024;-72
2021/09/23 10:16:15;;;;;;;15.32;6.13;;;;;;;;;;5062669;28;20032;-72
2021/09/23 10:18:42;;;;;;;17.67;5.53;;;;;;;;;;5059579;28;20297;-72
2021/09/23 10:21:09;;;;;;;17.88;6.25;;;;;;;;;;5065711;28;20044;-72
2021/09/23 10:23:41;;;;;;;16.10;6.60;;;;;;;;;;5068622;28;20035;-72
2021/09/23 10:26:14;;;;;;;13.40;5.80;;;;;;;;;;5064137;28;20111;-77
2021/09/23 10:28:45;;;;;;;12.02;5.40;;;;;;;;;;5056267;28;20025;-72
2021/09/23 10:31:11;;;;;;;13.95;5.78;;;;;;;;;;5076741;28;20145;-72
2021/09/23 10:33:40;;;;;;;11.80;5.30;;;;;;;;;;5081013;28;20119;-73
2021/09/23 10:36:08;;;;;;;13.50;5.50;;;;;;;;;;5065735;28;20054;-73
2021/09/23 10:38:35;;;;;;;9.65;5.20;;;;;;;;;;5068457;28;20029;-74
2021/09/23 10:41:02;;;;;;;11.40;5.10;;;;;;;;;;5069879;28;20048;-72
2021/09/23 10:43:29;;;;;;;10.70;5.70;;;;;;;;;;5073999;28;20024;-73
2021/09/23 10:45:55;;;;;;;14.75;5.43;;;;;;;;;;5072911;28;20029;-72
2021/09/23 10:48:22;;;;;;;11.30;4.68;;;;;;;;;;5070696;28;20028;-72
2021/09/23 10:50:49;;;;;;;14.27;6.00;;;;;;;;;;5073553;28;20032;-71
2021/09/23 10:53:15;;;;;;;10.52;5.85;;;;;;;;;;5073455;28;20041;-72
2021/09/23 10:55:42;;;;;;;15.88;6.85;;;;;;;;;;5073828;28;20035;-72
2021/09/23 10:58:09;;;;;;;12.98;6.78;;;;;;;;;;5070480;28;20028;-72
2021/09/23 11:00:36;;;;;;;14.20;7.10;;;;;;;;;;5073526;28;20035;-71
2021/09/23 11:03:06;;;;;;;15.00;7.97;;;;;;;;;;5072628;28;20025;-72
2021/09/23 11:05:32;;;;;;;14.40;7.43;;;;;;;;;;5072324;28;20029;-73
2021/09/23 11:07:59;;;;;;;18.92;8.13;;;;;;;;;;5069997;28;20024;-72
2021/09/23 11:10:26;;;;;;;16.23;7.45;;;;;;;;;;5071718;28;20021;-72
2021/09/23 11:12:54;;;;;;;18.25;8.20;;;;;;;;;;5073201;28;20123;-74
2021/09/23 11:15:22;;;;;;;14.65;8.73;;;;;;;;;;5073556;28;20028;-74
2021/09/23 11:17:49;;;;;;;18.80;8.90;;;;;;;;;;5068444;28;20024;-74
2021/09/23 11:20:16;;;;;;;13.93;7.80;;;;;;;;;;5068746;28;20028;-73
2021/09/23 11:22:44;;;;;;;16.00;7.35;;;;;;;;;;5073303;28;20557;-73
2021/09/23 11:25:12;;;;;;;12.52;8.30;;;;;;;;;;5072651;28;20054;-72
2021/09/23 11:27:39;;;;;;;16.65;8.88;;;;;;;;;;5069992;28;20032;-76
2021/09/23 11:30:06;;;;;;;14.23;8.20;;;;;;;;;;5070459;28;20024;-73
2021/09/23 11:32:32;;;;;;;18.00;8.07;;;;;;;;;;5068424;28;20074;-74
2021/09/23 11:35:05;;;;;;;11.77;7.22;;;;;;;;;;5069972;28;20112;-76
2021/09/23 11:37:32;;;;;;;16.55;7.20;;;;;;;;;;5067109;28;20025;-72
2021/09/23 11:39:59;;;;;;;13.25;7.47;;;;;;;;;;5067696;28;20775;-74
2021/09/23 11:42:39;;;;;;;15.40;6.32;;;;;;;;;;5069696;28;20072;-72
2021/09/23 11:45:09;;;;;;;13.10;6.65;;;;;;;;;;5068662;28;20024;-72
2021/09/23 11:47:45;;;;;;;12.50;6.25;;;;;;;;;;5063834;28;20029;-73
2021/09/23 11:50:21;;;;;;;19.98;6.22;;;;;;;;;;5066073;28;20037;-73
2021/09/23 11:52:51;;;;;;;13.65;5.63;;;;;;;;;;5063560;28;20021;-73
2021/09/23 11:55:17;;;;;;;16.42;5.13;;;;;;;;;;5065710;28;20012;-74
2021/09/23 11:57:43;;;;;;;16.67;4.70;;;;;;;;;;5060465;28;20040;-72
2021/09/23 12:00:09;;;;;;;12.95;5.18;;;;;;;;;;5072698;28;20024;-72
2021/09/23 12:02:35;;;;;;;11.23;5.68;;;;;;;;;;5069954;28;20036;-72
2021/09/23 12:05:02;;;;;;;14.60;4.55;;;;;;;;;;5071736;28;20024;-74
2021/09/23 12:07:28;;;;;;;15.07;4.88;;;;;;;;;;5065951;28;20035;-74
2021/09/23 12:10:01;;;;;;;14.32;4.03;;;;;;;;;;5068469;28;20035;-72
2021/09/23 12:12:27;;;;;;;9.85;3.55;;;;;;;;;;5072057;28;20021;-75
2021/09/23 12:14:54;;;;;;;17.33;4.35;;;;;;;;;;5071425;28;20025;-73
2021/09/23 12:17:20;;;;;;;9.90;3.90;;;;;;;;;;5065558;28;20024;-73
2021/09/23 12:19:53;;;;;;;12.70;4.35;;;;;;;;;;5068749;28;20074;-73
2021/09/23 12:22:33;;;;;;;12.43;4.45;;;;;;;;;;5061400;28;20032;-74
2021/09/23 12:24:59;;;;;;;12.38;3.47;;;;;;;;;;5066821;28;20032;-72
2021/09/23 12:27:27;;;;;;;11.02;4.22;;;;;;;;;;5065577;28;20036;-72
2021/09/23 12:29:55;;;;;;;8.40;3.40;;;;;;;;;;5071433;28;20032;-73
2021/09/23 12:32:29;;;;;;;12.32;3.53;;;;;;;;;;5068383;28;20107;-73
2021/09/23 12:34:55;;;;;;;13.38;3.63;;;;;;;;;;5060967;28;22561;-71
2021/09/23 12:37:23;;;;;;;14.18;3.70;;;;;;;;;;5061721;28;20012;-72
2021/09/23 12:39:49;;;;;;;12.63;3.55;;;;;;;;;;5069701;28;20044;-74
2021/09/23 12:42:19;;;;;;;14.27;3.70;;;;;;;;;;5067953;28;20040;-74
2021/09/23 12:44:58;;;;;;;15.77;4.25;;;;;;;;;;5066930;28;20032;-71
2021/09/23 12:47:24;;;;;;;11.93;3.75;;;;;;;;;;5061933;28;20035;-72
2021/09/23 12:49:50;;;;;;;13.77;4.00;;;;;;;;;;5065469;28;20029;-72
2021/09/23 12:52:26;;;;;;;12.52;3.35;;;;;;;;;;5064766;28;20031;-72
2021/09/23 12:55:04;;;;;;;11.02;3.15;;;;;;;;;;5070635;28;20044;-72
2021/09/23 12:57:35;;;;;;;9.82;3.08;;;;;;;;;;5066949;28;20371;-73
2021/09/23 13:00:18;;;;;;;13.33;3.27;;;;;;;;;;5063865;28;20498;-73
2021/09/23 13:02:45;;;;;;;9.63;3.15;;;;;;;;;;5066914;28;20032;-70
2021/09/23 13:05:27;;;;;;;11.23;3.88;;;;;;;;;;5063822;28;20039;-72
2021/09/23 13:07:53;;;;;;;10.38;2.67;;;;;;;;;;5061804;28;20029;-72
2021/09/23 13:10:20;;;;;;;8.68;3.75;;;;;;;;;;5066124;28;20037;-72
2021/09/23 13:13:06;;;;;;;10.00;2.85;;;;;;;;;;5066546;28;20052;-72
2021/09/23 13:15:41;;;;;;;7.75;2.78;;;;;;;;;;5064009;28;20056;-72
2021/09/23 13:18:09;;;;;;;9.13;3.38;;;;;;;;;;5063464;28;20044;-72
2021/09/23 13:20:41;;;;;;;13.00;3.92;;;;;;;;;;5063431;28;20428;-71
2021/09/23 13:23:11;;;;;;;7.15;2.50;;;;;;;;;;5068146;28;20491;-74
2021/09/23 13:25:38;;;;;;;10.60;2.88;;;;;;;;;;5068582;28;20016;-74
2021/09/23 13:28:14;;;;;;;12.75;3.75;;;;;;;;;;5064657;28;20182;-73
2021/09/23 13:30:43;;;;;;;12.45;3.20;;;;;;;;;;5067753;28;20156;-72
2021/09/23 13:33:09;;;;;;;13.88;3.28;;;;;;;;;;5067679;28;20036;-73
2021/09/23 13:35:36;;;;;;;10.73;3.92;;;;;;;;;;5060171;28;20024;-71
2021/09/23 13:38:02;;;;;;;9.85;3.53;;;;;;;;;;5060637;28;20025;-73
2021/09/23 13:40:28;;;;;;;12.10;3.47;;;;;;;;;;5067976;28;20267;-71
2021/09/23 13:42:54;;;;;;;9.07;3.88;;;;;;;;;;5064874;28;20029;-72
2021/09/23 13:45:20;;;;;;;16.70;3.05;;;;;;;;;;5066065;28;20044;-75
2021/09/23 13:47:46;;;;;;;13.10;3.47;;;;;;;;;;5063103;28;20250;-74
2021/09/23 13:50:13;;;;;;;10.27;3.20;;;;;;;;;;5067005;28;20548;-74
2021/09/23 13:52:39;;;;;;;12.48;3.58;;;;;;;;;;5064100;28;20021;-72
2021/09/23 13:55:06;;;;;;;14.93;3.75;;;;;;;;;;5064041;28;20037;-73
2021/09/23 13:57:33;;;;;;;11.45;3.45;;;;;;;;;;5060867;28;20575;-71
2021/09/23 13:59:59;;;;;;;14.38;4.55;;;;;;;;;;5064501;28;20532;-70
2021/09/23 14:02:25;;;;;;;10.98;3.75;;;;;;;;;;5067279;28;20589;-72
2021/09/23 14:04:51;;;;;;;12.77;4.05;;;;;;;;;;5063728;28;20028;-70
2021/09/23 14:07:18;;;;;;;21.55;4.53;;;;;;;;;;5065336;28;20594;-70
2021/09/23 14:09:44;;;;;;;10.88;3.50;;;;;;;;;;5068953;28;20021;-71
2021/09/23 14:12:12;;;;;;;16.15;3.75;;;;;;;;;;5065762;28;20029;-70
2021/09/23 14:14:38;;;;;;;17.70;3.97;;;;;;;;;;5066569;28;20021;-71
2021/09/23 14:17:06;;;;;;;10.73;3.55;;;;;;;;;;5063380;28;20032;-72
2021/09/23 14:19:33;;;;;;;17.45;4.38;;;;;;;;;;5064490;28;20021;-72
2021/09/23 14:21:59;;;;;;;11.80;3.90;;;;;;;;;;5069376;28;20102;-72
2021/09/23 14:24:25;;;;;;;12.68;4.03;;;;;;;;;;5069613;28;20031;-71